Time;durP1;ratioP1;P1;durP2;ratioP2;P2;SDS_P1;SDS_P2;PMS_P1;PMS_P2;Temp;Humidity;BMP_temperature;BMP_pressure;BME280_temperature;BME280_humidity;BME280_pressure;Samples;Min_cycle;Max_cycle;Signal;HPM_P1;HPM_P2
2024/01/05 00:02:13;;;;;;;3.50;2.60;;;3.40;99.90;;;;;;5078345;28;20450;-63
2024/01/05 00:04:41;;;;;;;5.00;3.30;;;3.40;99.90;;;;;;5079027;28;20456;-63
2024/01/05 00:07:10;;;;;;;3.87;2.47;;;3.40;99.90;;;;;;5078188;28;20440;-62
2024/01/05 00:09:37;;;;;;;5.23;3.07;;;3.40;99.90;;;;;;5079444;28;20459;-62
2024/01/05 00:12:05;;;;;;;9.53;3.30;;;3.50;99.90;;;;;;5078665;28;20509;-58
2024/01/05 00:14:32;;;;;;;4.30;3.37;;;3.50;99.90;;;;;;5079986;28;20452;-63
2024/01/05 00:16:59;;;;;;;4.13;3.17;;;3.50;99.90;;;;;;5078835;28;20450;-63
2024/01/05 00:19:28;;;;;;;7.07;3.10;;;3.50;99.90;;;;;;5078490;28;20444;-60
2024/01/05 00:21:56;;;;;;;5.00;2.53;;;3.50;99.90;;;;;;5079071;28;20421;-62
2024/01/05 00:24:23;;;;;;;6.00;2.80;;;3.40;99.90;;;;;;5078718;28;20445;-62
2024/01/05 00:26:50;;;;;;;8.03;3.73;;;3.40;99.90;;;;;;5078775;28;20476;-61
2024/01/05 00:29:17;;;;;;;6.77;3.70;;;3.40;99.90;;;;;;5079043;28;20470;-63
2024/01/05 00:31:44;;;;;;;5.60;4.13;;;3.50;99.90;;;;;;5075770;28;20492;-64
2024/01/05 00:34:11;;;;;;;4.60;3.03;;;3.40;99.90;;;;;;5077223;28;20418;-62
2024/01/05 00:36:38;;;;;;;6.67;4.33;;;3.50;99.90;;;;;;5077480;28;20448;-62
2024/01/05 00:39:06;;;;;;;4.10;3.07;;;3.50;99.90;;;;;;5075757;28;20493;-62
2024/01/05 00:41:34;;;;;;;4.97;3.10;;;3.50;99.90;;;;;;5075394;28;20500;-62
2024/01/05 00:44:01;;;;;;;8.90;3.20;;;3.40;99.90;;;;;;5078520;28;20444;-63
2024/01/05 00:46:28;;;;;;;4.27;2.83;;;3.40;99.90;;;;;;5078715;28;20420;-59
2024/01/05 00:48:55;;;;;;;5.20;3.70;;;3.50;99.90;;;;;;5078098;28;20460;-63
2024/01/05 00:51:22;;;;;;;4.37;2.90;;;3.50;99.90;;;;;;5077789;28;20484;-63
2024/01/05 00:53:48;;;;;;;4.23;3.00;;;3.50;99.90;;;;;;5077765;28;20440;-62
2024/01/05 00:56:17;;;;;;;3.87;2.40;;;3.50;99.90;;;;;;5077688;28;20441;-63
2024/01/05 00:58:45;;;;;;;7.33;2.87;;;3.60;99.90;;;;;;5078137;28;20457;-62
2024/01/05 01:01:12;;;;;;;4.37;2.90;;;3.60;99.90;;;;;;5077992;28;20453;-63
2024/01/05 01:03:39;;;;;;;5.40;2.67;;;3.50;99.90;;;;;;5078017;28;20478;-63
2024/01/05 01:06:06;;;;;;;2.97;1.90;;;3.50;99.90;;;;;;5077669;28;20421;-62
2024/01/05 01:08:32;;;;;;;4.70;3.30;;;3.50;99.90;;;;;;5077600;28;20469;-63
2024/01/05 01:11:00;;;;;;;4.07;2.67;;;3.50;99.90;;;;;;5078398;28;20496;-62
2024/01/05 01:13:28;;;;;;;3.20;2.90;;;3.50;99.90;;;;;;5078523;28;20515;-63
2024/01/05 01:15:55;;;;;;;3.20;2.17;;;3.50;99.90;;;;;;5078598;28;20460;-63
2024/01/05 01:18:22;;;;;;;5.03;3.23;;;3.50;99.90;;;;;;5077983;28;20458;-62
2024/01/05 01:20:49;;;;;;;4.13;2.47;;;3.40;99.90;;;;;;5078064;28;20459;-61
2024/01/05 01:23:16;;;;;;;4.97;3.20;;;3.40;99.90;;;;;;5077719;28;20435;-63
2024/01/05 01:25:43;;;;;;;4.57;2.80;;;3.50;99.90;;;;;;5077487;28;20483;-64
2024/01/05 01:28:10;;;;;;;4.30;2.53;;;3.40;99.90;;;;;;5077639;28;20466;-63
2024/01/05 01:30:38;;;;;;;4.47;2.60;;;3.40;99.90;;;;;;5077326;28;20463;-62
2024/01/05 01:33:05;;;;;;;3.90;3.10;;;3.40;99.90;;;;;;5077242;28;20443;-63
2024/01/05 01:35:32;;;;;;;5.97;3.43;;;3.40;99.90;;;;;;5077675;28;20438;-62
2024/01/05 01:37:59;;;;;;;4.90;2.60;;;3.40;99.90;;;;;;5076833;28;20447;-62
2024/01/05 01:40:26;;;;;;;7.80;2.73;;;3.50;99.90;;;;;;5077698;28;20495;-62
2024/01/05 01:42:53;;;;;;;4.50;2.13;;;3.50;99.90;;;;;;5077448;28;20447;-61
2024/01/05 01:45:20;;;;;;;3.30;3.00;;;3.50;99.90;;;;;;5078169;28;20478;-62
2024/01/05 01:47:50;;;;;;;3.50;2.30;;;3.40;99.90;;;;;;5077363;28;20427;-63
2024/01/05 01:50:17;;;;;;;3.20;2.77;;;3.40;99.90;;;;;;5076483;28;20473;-62
2024/01/05 01:52:47;;;;;;;3.67;2.60;;;3.40;99.90;;;;;;5075905;28;20497;-63
2024/01/05 01:55:16;;;;;;;4.20;2.77;;;3.40;99.90;;;;;;5076693;28;20500;-64
2024/01/05 01:57:44;;;;;;;5.63;1.97;;;3.40;99.90;;;;;;5076778;28;20448;-63
2024/01/05 02:00:13;;;;;;;4.47;3.10;;;3.40;99.90;;;;;;5075422;28;20441;-62
2024/01/05 02:02:41;;;;;;;4.63;3.07;;;3.40;99.90;;;;;;5073870;28;20458;-62
2024/01/05 02:05:09;;;;;;;4.80;2.97;;;3.40;99.90;;;;;;5073999;28;20501;-63
2024/01/05 02:07:36;;;;;;;4.63;2.30;;;3.40;99.90;;;;;;5074316;28;20470;-63
2024/01/05 02:10:03;;;;;;;4.30;2.67;;;3.40;99.90;;;;;;5073550;28;20446;-63
2024/01/05 02:12:30;;;;;;;3.70;2.63;;;3.40;99.90;;;;;;5074300;28;20520;-64
2024/01/05 02:14:57;;;;;;;3.57;2.37;;;3.40;99.90;;;;;;5074044;28;20440;-62
2024/01/05 02:17:32;;;;;;;2.83;2.20;;;3.40;99.90;;;;;;5073777;28;20507;-63
2024/01/05 02:19:59;;;;;;;3.40;2.63;;;3.40;99.90;;;;;;5073413;28;20452;-62
2024/01/05 02:22:30;;;;;;;2.37;1.70;;;3.40;99.90;;;;;;5073494;28;20470;-63
2024/01/05 02:24:58;;;;;;;4.50;2.77;;;3.40;99.90;;;;;;5073379;28;20456;-60
2024/01/05 02:27:26;;;;;;;5.50;2.40;;;3.40;99.90;;;;;;5067408;28;20453;-64
2024/01/05 02:29:52;;;;;;;9.00;3.27;;;3.40;99.90;;;;;;5064250;28;20973;-64
2024/01/05 02:32:19;;;;;;;6.20;3.37;;;3.40;99.90;;;;;;5063440;28;20481;-63
2024/01/05 02:34:46;;;;;;;4.73;2.60;;;3.50;99.90;;;;;;5064587;28;20498;-64
2024/01/05 02:37:13;;;;;;;3.10;1.97;;;3.50;99.90;;;;;;5063764;28;20918;-63
2024/01/05 02:39:40;;;;;;;5.50;2.23;;;3.50;99.90;;;;;;5063594;28;20477;-63
2024/01/05 02:42:08;;;;;;;7.23;2.37;;;3.50;99.90;;;;;;5064073;28;20810;-63
2024/01/05 02:44:38;;;;;;;3.93;2.97;;;3.50;99.90;;;;;;5064143;28;20490;-63
2024/01/05 02:47:05;;;;;;;6.70;2.37;;;3.40;99.90;;;;;;5064422;28;20518;-63
2024/01/05 02:49:31;;;;;;;4.00;2.30;;;3.50;99.90;;;;;;5064410;28;20470;-64
2024/01/05 02:51:58;;;;;;;3.53;2.57;;;3.40;99.90;;;;;;5064178;28;20549;-64
2024/01/05 02:54:25;;;;;;;3.33;2.27;;;3.40;99.90;;;;;;5064928;28;20468;-63
2024/01/05 02:56:52;;;;;;;3.30;2.97;;;3.40;99.90;;;;;;5064568;28;20465;-64
2024/01/05 02:59:20;;;;;;;3.07;2.60;;;3.30;99.90;;;;;;5064301;28;20473;-62
2024/01/05 03:01:50;;;;;;;3.07;2.13;;;3.40;99.90;;;;;;5064337;28;20952;-62
2024/01/05 03:04:16;;;;;;;3.00;2.30;;;3.40;99.90;;;;;;5064394;28;20465;-63
2024/01/05 03:06:43;;;;;;;4.87;2.40;;;3.40;99.90;;;;;;5064602;28;20512;-61
2024/01/05 03:09:10;;;;;;;6.03;2.33;;;3.30;99.90;;;;;;5064144;28;20502;-64
2024/01/05 03:11:38;;;;;;;4.33;2.40;;;3.30;99.90;;;;;;5064791;28;20469;-64
2024/01/05 03:14:05;;;;;;;6.27;2.37;;;3.30;99.90;;;;;;5065127;28;20445;-63
2024/01/05 03:16:33;;;;;;;5.80;2.57;;;3.30;99.90;;;;;;5064446;28;20509;-64
2024/01/05 03:19:00;;;;;;;3.17;2.10;;;3.20;99.90;;;;;;5064630;28;20512;-62
2024/01/05 03:21:27;;;;;;;2.67;2.40;;;3.20;99.90;;;;;;5063892;28;20471;-62
2024/01/05 03:23:53;;;;;;;7.10;2.20;;;3.20;99.90;;;;;;5064550;28;20446;-63
2024/01/05 03:26:20;;;;;;;3.40;1.90;;;3.30;99.90;;;;;;5063710;28;20492;-63
2024/01/05 03:28:47;;;;;;;2.90;1.83;;;3.30;99.90;;;;;;5064036;28;20902;-64
2024/01/05 03:31:14;;;;;;;3.90;2.37;;;3.30;99.90;;;;;;5063515;28;20445;-62
2024/01/05 03:33:44;;;;;;;4.17;2.23;;;3.30;99.90;;;;;;5059008;28;20914;-63
2024/01/05 03:36:11;;;;;;;3.57;1.87;;;3.20;99.90;;;;;;5058271;28;20451;-63
2024/01/05 03:38:38;;;;;;;3.77;1.97;;;3.20;99.90;;;;;;5058993;28;20464;-64
2024/01/05 03:41:05;;;;;;;5.53;2.20;;;3.10;99.90;;;;;;5059116;28;20535;-62
2024/01/05 03:43:32;;;;;;;3.20;2.20;;;3.10;99.90;;;;;;5058736;28;20861;-63
2024/01/05 03:45:58;;;;;;;3.73;2.20;;;3.10;99.90;;;;;;5058578;28;20447;-63
2024/01/05 03:48:26;;;;;;;3.00;2.17;;;3.10;99.90;;;;;;5058971;28;20562;-64
2024/01/05 03:50:54;;;;;;;2.67;2.23;;;3.10;99.90;;;;;;5058953;28;20431;-63
2024/01/05 03:53:21;;;;;;;5.73;3.30;;;3.10;99.90;;;;;;5059051;28;20563;-63
2024/01/05 03:55:48;;;;;;;5.13;2.47;;;3.10;99.90;;;;;;5058159;28;20510;-62
2024/01/05 03:58:15;;;;;;;6.80;2.50;;;3.10;99.90;;;;;;5058504;28;20442;-65
2024/01/05 04:00:42;;;;;;;2.80;2.20;;;3.10;99.90;;;;;;5058482;28;20472;-64
2024/01/05 04:03:09;;;;;;;7.90;2.60;;;3.10;99.90;;;;;;5058435;28;20507;-64
2024/01/05 04:05:36;;;;;;;2.70;2.30;;;3.00;99.90;;;;;;5058549;28;20520;-64
2024/01/05 04:08:05;;;;;;;4.60;3.47;;;3.10;99.90;;;;;;5058356;28;20441;-63
2024/01/05 04:10:32;;;;;;;5.60;2.83;;;3.00;99.90;;;;;;5058410;28;20508;-62
2024/01/05 04:12:59;;;;;;;3.63;2.30;;;3.00;99.90;;;;;;5058302;28;20973;-62
2024/01/05 04:15:25;;;;;;;6.57;3.03;;;3.00;99.90;;;;;;5058919;28;20840;-62
2024/01/05 04:17:52;;;;;;;4.37;2.50;;;3.00;99.90;;;;;;5062257;28;20528;-63
2024/01/05 04:20:19;;;;;;;6.67;4.27;;;3.00;99.90;;;;;;5061877;28;20523;-63
2024/01/05 04:22:46;;;;;;;5.40;3.03;;;3.00;99.90;;;;;;5062314;28;20547;-62
2024/01/05 04:25:14;;;;;;;7.17;3.43;;;3.00;99.90;;;;;;5062127;28;20527;-63
2024/01/05 04:27:41;;;;;;;6.13;3.07;;;3.00;99.90;;;;;;5061951;28;20505;-63
2024/01/05 04:30:09;;;;;;;6.30;3.67;;;3.00;99.90;;;;;;5061830;28;20896;-64
2024/01/05 04:32:38;;;;;;;5.90;3.00;;;3.00;99.90;;;;;;5065435;28;20487;-65
2024/01/05 04:35:05;;;;;;;4.73;3.60;;;3.00;99.90;;;;;;5063183;28;20476;-63
2024/01/05 04:37:32;;;;;;;4.30;2.70;;;2.90;99.90;;;;;;5059936;28;20445;-63
2024/01/05 04:39:59;;;;;;;4.77;2.57;;;2.90;99.90;;;;;;5059345;28;20515;-61
2024/01/05 04:42:28;;;;;;;4.47;3.20;;;2.90;99.90;;;;;;5059975;28;20483;-63
2024/01/05 04:44:55;;;;;;;5.47;2.80;;;2.90;99.90;;;;;;5059491;28;20500;-63
2024/01/05 04:47:22;;;;;;;4.60;3.10;;;2.90;99.90;;;;;;5059296;28;20488;-64
2024/01/05 04:49:49;;;;;;;3.97;3.00;;;2.90;99.90;;;;;;5059060;28;20546;-63
2024/01/05 04:52:15;;;;;;;3.60;3.23;;;2.90;99.90;;;;;;5059299;28;20580;-63
2024/01/05 04:54:42;;;;;;;4.87;3.63;;;3.00;99.90;;;;;;5059309;28;20928;-64
2024/01/05 04:57:09;;;;;;;4.43;3.60;;;3.00;99.90;;;;;;5059144;28;20533;-64
2024/01/05 04:59:38;;;;;;;6.00;3.47;;;3.00;99.90;;;;;;5058510;28;20998;-63
2024/01/05 05:02:05;;;;;;;6.33;3.67;;;3.00;99.90;;;;;;5057232;28;20479;-63
2024/01/05 05:04:33;;;;;;;4.53;3.13;;;3.00;99.90;;;;;;5057067;28;20952;-63
2024/01/05 05:06:59;;;;;;;5.23;3.57;;;3.00;99.90;;;;;;5057201;28;20541;-64
2024/01/05 05:09:26;;;;;;;7.17;3.83;;;3.00;99.90;;;;;;5057228;28;20471;-64
2024/01/05 05:11:53;;;;;;;8.27;4.80;;;2.90;99.90;;;;;;5057291;28;20546;-63
2024/01/05 05:14:20;;;;;;;4.13;3.53;;;2.90;99.90;;;;;;5056876;28;20510;-63
2024/01/05 05:16:48;;;;;;;4.97;3.30;;;2.90;99.90;;;;;;5056789;28;20905;-63
2024/01/05 05:19:15;;;;;;;6.50;3.67;;;2.90;99.90;;;;;;5056284;28;21020;-63
2024/01/05 05:21:42;;;;;;;3.37;2.33;;;2.80;99.90;;;;;;5056376;28;20513;-63
2024/01/05 05:24:09;;;;;;;4.33;2.93;;;2.90;99.90;;;;;;5056492;28;20491;-64
2024/01/05 05:26:35;;;;;;;3.77;3.47;;;2.90;99.90;;;;;;5056190;28;20437;-64
2024/01/05 05:29:02;;;;;;;5.10;2.90;;;2.90;99.90;;;;;;5056449;28;20526;-63
2024/01/05 05:31:29;;;;;;;4.77;3.13;;;2.90;99.90;;;;;;5056197;28;20455;-64
2024/01/05 05:33:58;;;;;;;5.07;2.93;;;2.90;99.90;;;;;;5056261;28;20583;-63
2024/01/05 05:36:24;;;;;;;4.87;2.73;;;2.90;99.90;;;;;;5056495;28;20535;-64
2024/01/05 05:38:51;;;;;;;4.23;3.13;;;2.80;99.90;;;;;;5056328;28;20483;-62
2024/01/05 05:41:18;;;;;;;6.20;3.27;;;2.80;99.90;;;;;;5056190;28;20854;-64
2024/01/05 05:43:46;;;;;;;4.73;2.83;;;2.80;99.90;;;;;;5056215;28;20476;-64
2024/01/05 05:46:13;;;;;;;5.23;2.50;;;2.70;99.90;;;;;;5056210;28;20752;-65
2024/01/05 05:48:40;;;;;;;5.43;2.80;;;2.70;99.90;;;;;;5056218;28;20539;-62
2024/01/05 05:51:08;;;;;;;5.13;3.00;;;2.70;99.90;;;;;;5055803;28;20564;-62
2024/01/05 05:53:35;;;;;;;5.13;2.63;;;2.70;99.90;;;;;;5055983;28;20479;-64
2024/01/05 05:56:02;;;;;;;2.60;2.10;;;2.70;99.90;;;;;;5055925;28;20549;-64
2024/01/05 05:58:29;;;;;;;3.47;2.20;;;2.80;99.90;;;;;;5056000;28;20514;-63
2024/01/05 06:00:56;;;;;;;3.70;2.03;;;2.80;99.90;;;;;;5055682;28;20549;-64
2024/01/05 06:03:23;;;;;;;5.80;3.80;;;2.80;99.90;;;;;;5055980;28;20827;-64
2024/01/05 06:05:50;;;;;;;4.97;2.73;;;2.80;99.90;;;;;;5055627;28;20473;-62
2024/01/05 06:08:18;;;;;;;4.27;3.40;;;2.80;99.90;;;;;;5055950;28;20546;-62
2024/01/05 06:10:45;;;;;;;4.13;1.87;;;2.80;99.90;;;;;;5055311;28;20464;-63
2024/01/05 06:13:12;;;;;;;4.27;2.13;;;2.80;99.90;;;;;;5055291;28;20513;-64
2024/01/05 06:15:39;;;;;;;4.20;2.93;;;2.70;99.90;;;;;;5055558;28;20473;-63
2024/01/05 06:18:06;;;;;;;6.00;2.63;;;2.70;99.90;;;;;;5055299;28;20547;-61
2024/01/05 06:20:33;;;;;;;3.63;2.33;;;2.70;99.90;;;;;;5055431;28;20949;-63
2024/01/05 06:23:00;;;;;;;5.50;2.70;;;2.70;99.90;;;;;;5055168;28;20532;-64
2024/01/05 06:25:28;;;;;;;3.77;2.77;;;2.70;99.90;;;;;;5055028;28;20547;-63
2024/01/05 06:27:55;;;;;;;3.33;2.30;;;2.70;99.90;;;;;;5055066;28;20483;-62
2024/01/05 06:30:22;;;;;;;4.90;2.70;;;2.80;99.90;;;;;;5055392;28;20452;-63
2024/01/05 06:32:49;;;;;;;3.60;2.30;;;2.70;99.90;;;;;;5055294;28;20503;-63
2024/01/05 06:35:15;;;;;;;5.13;2.67;;;2.60;99.90;;;;;;5055187;28;20531;-65
2024/01/05 06:37:42;;;;;;;5.20;2.40;;;2.70;99.90;;;;;;5055259;28;20499;-63
2024/01/05 06:40:10;;;;;;;5.03;3.07;;;2.70;99.90;;;;;;5054504;28;20606;-62
2024/01/05 06:42:38;;;;;;;5.13;2.63;;;2.70;99.90;;;;;;5055160;28;20529;-63
2024/01/05 06:45:06;;;;;;;5.53;2.73;;;2.70;99.90;;;;;;5055072;28;20480;-63
2024/01/05 06:47:34;;;;;;;3.87;2.63;;;2.70;99.90;;;;;;5058985;28;20446;-63
2024/01/05 06:50:00;;;;;;;4.70;2.57;;;2.60;99.90;;;;;;5058765;28;20539;-62
2024/01/05 06:52:27;;;;;;;3.50;2.57;;;2.60;99.90;;;;;;5059854;28;20828;-64
2024/01/05 06:54:54;;;;;;;5.27;2.40;;;2.60;99.90;;;;;;5055564;28;20468;-63
2024/01/05 06:57:21;;;;;;;4.27;3.10;;;2.60;99.90;;;;;;5055551;28;20496;-63
2024/01/05 06:59:49;;;;;;;7.00;3.47;;;2.50;99.90;;;;;;5055400;28;20533;-64
2024/01/05 07:02:17;;;;;;;4.63;2.90;;;2.50;99.90;;;;;;5054638;28;20551;-64
2024/01/05 07:04:44;;;;;;;6.40;3.07;;;2.40;99.90;;;;;;5054855;28;20444;-65
2024/01/05 07:07:12;;;;;;;14.93;2.60;;;2.40;99.90;;;;;;5055129;28;20468;-63
2024/01/05 07:09:38;;;;;;;3.20;2.43;;;2.30;99.90;;;;;;5067085;28;20445;-63
2024/01/05 07:12:05;;;;;;;3.33;2.57;;;2.30;99.90;;;;;;5075391;28;20472;-63
2024/01/05 07:14:32;;;;;;;4.77;3.03;;;2.30;99.90;;;;;;5074875;28;20444;-63
2024/01/05 07:17:00;;;;;;;6.00;3.40;;;2.20;99.90;;;;;;5075009;28;20474;-63
2024/01/05 07:19:30;;;;;;;4.20;2.40;;;2.20;99.90;;;;;;5074554;28;20444;-65
2024/01/05 07:21:57;;;;;;;4.73;2.80;;;2.20;99.90;;;;;;5069005;28;20440;-64
2024/01/05 07:24:24;;;;;;;13.13;3.40;;;2.20;99.90;;;;;;5067628;28;20442;-63
2024/01/05 07:26:51;;;;;;;7.87;3.53;;;2.40;99.90;;;;;;5063460;28;20444;-63
2024/01/05 07:29:17;;;;;;;6.17;3.83;;;2.50;99.90;;;;;;5059968;28;20482;-63
2024/01/05 07:31:45;;;;;;;9.00;3.37;;;2.40;99.90;;;;;;5059781;28;20490;-63
2024/01/05 07:34:13;;;;;;;7.97;4.63;;;2.40;99.90;;;;;;5057233;28;20493;-63
2024/01/05 07:36:42;;;;;;;5.07;3.67;;;2.30;99.90;;;;;;5061958;28;20459;-63
2024/01/05 07:39:11;;;;;;;5.03;2.67;;;2.30;99.90;;;;;;5068920;28;20472;-62
2024/01/05 07:41:38;;;;;;;4.77;3.30;;;2.30;99.90;;;;;;5069716;28;20455;-63
2024/01/05 07:44:06;;;;;;;4.60;3.07;;;2.20;99.90;;;;;;5063649;28;20464;-64
2024/01/05 07:46:33;;;;;;;7.97;4.40;;;2.20;99.90;;;;;;5060003;28;20480;-64
2024/01/05 07:48:59;;;;;;;25.38;11.73;;;2.20;99.90;;;;;;5061328;28;20435;-62
2024/01/05 07:51:28;;;;;;;13.33;7.03;;;3.00;99.90;;;;;;5061608;28;20241;-61
2024/01/05 07:53:55;;;;;;;7.20;4.70;;;4.10;99.90;;;;;;5062646;28;20499;-61
2024/01/05 07:56:22;;;;;;;6.20;4.30;;;4.30;99.90;;;;;;5062471;28;20487;-64
2024/01/05 07:58:49;;;;;;;8.03;4.63;;;4.10;99.90;;;;;;5063226;28;20622;-62
2024/01/05 08:01:16;;;;;;;7.63;4.43;;;3.70;99.90;;;;;;5063697;28;20560;-64
2024/01/05 08:03:44;;;;;;;8.33;4.20;;;3.40;99.90;;;;;;5061747;28;20852;-63
2024/01/05 08:06:14;;;;;;;11.60;4.83;;;3.20;99.90;;;;;;5061046;28;20508;-63
2024/01/05 08:08:44;;;;;;;11.57;4.73;;;3.50;99.90;;;;;;5061743;28;20524;-63
2024/01/05 08:11:11;;;;;;;8.30;5.23;;;4.10;99.90;;;;;;5075738;28;20421;-63
2024/01/05 08:13:38;;;;;;;10.90;4.70;;;4.60;99.90;;;;;;5074979;28;20508;-63
2024/01/05 08:16:05;;;;;;;7.60;4.30;;;4.90;99.90;;;;;;5070049;28;20469;-63
2024/01/05 08:18:32;;;;;;;5.13;3.50;;;5.10;99.90;;;;;;5068698;28;20442;-64
2024/01/05 08:20:59;;;;;;;5.37;3.77;;;5.10;99.90;;;;;;5072197;28;20469;-63
2024/01/05 08:23:26;;;;;;;11.40;3.83;;;4.60;99.90;;;;;;5076601;28;20437;-65
2024/01/05 08:25:54;;;;;;;6.90;4.17;;;4.20;99.90;;;;;;5067902;28;20441;-65
2024/01/05 08:28:21;;;;;;;7.00;4.10;;;3.90;99.90;;;;;;5073289;28;20490;-62
2024/01/05 08:30:47;;;;;;;7.93;5.60;;;3.60;99.90;;;;;;5077091;28;20429;-63
2024/01/05 08:33:14;;;;;;;5.47;3.50;;;3.40;99.90;;;;;;5071733;28;20811;-63
2024/01/05 08:35:41;;;;;;;6.70;3.93;;;3.10;99.90;;;;;;5062877;28;20554;-64
2024/01/05 08:38:08;;;;;;;5.13;3.10;;;3.00;99.90;;;;;;5062299;28;20488;-63
2024/01/05 08:40:35;;;;;;;5.70;3.70;;;2.90;99.90;;;;;;5062748;28;20557;-64
2024/01/05 08:43:04;;;;;;;9.93;3.87;;;2.80;99.90;;;;;;5070102;28;20483;-63
2024/01/05 08:45:32;;;;;;;10.77;3.90;;;2.70;99.90;;;;;;5075934;28;20465;-64
2024/01/05 08:47:59;;;;;;;5.80;3.27;;;2.70;99.90;;;;;;5071968;28;20433;-65
2024/01/05 08:50:26;;;;;;;5.70;3.73;;;2.70;99.90;;;;;;5076948;28;20451;-63
2024/01/05 08:52:53;;;;;;;7.10;3.67;;;2.60;99.90;;;;;;5077783;28;20466;-63
2024/01/05 08:55:20;;;;;;;5.93;4.23;;;2.50;99.90;;;;;;5072716;28;20445;-63
2024/01/05 08:57:48;;;;;;;5.00;3.77;;;2.50;99.90;;;;;;5076293;28;20489;-63
2024/01/05 09:00:18;;;;;;;7.83;4.00;;;2.50;99.90;;;;;;5075184;28;20448;-64
2024/01/05 09:02:45;;;;;;;6.03;3.67;;;2.40;99.90;;;;;;5073264;28;20436;-61
2024/01/05 09:05:12;;;;;;;6.10;3.37;;;2.40;99.90;;;;;;5070540;28;20516;-62
2024/01/05 09:07:39;;;;;;;7.03;3.10;;;2.50;99.90;;;;;;5070159;28;20454;-64
2024/01/05 09:10:08;;;;;;;5.40;3.77;;;2.40;99.90;;;;;;5060067;28;20548;-65
2024/01/05 09:12:35;;;;;;;5.30;3.60;;;2.40;99.90;;;;;;5056700;28;20493;-63
2024/01/05 09:15:01;;;;;;;7.00;3.23;;;2.40;99.90;;;;;;5057921;28;20567;-64
2024/01/05 09:17:30;;;;;;;3.60;2.90;;;2.40;99.90;;;;;;5056612;28;20539;-63
2024/01/05 09:19:57;;;;;;;4.30;3.00;;;2.40;99.90;;;;;;5056607;28;20790;-64
2024/01/05 09:22:24;;;;;;;5.33;3.30;;;2.40;99.90;;;;;;5056189;28;20945;-61
2024/01/05 09:24:50;;;;;;;7.90;3.63;;;2.40;99.90;;;;;;5056453;28;20487;-63
2024/01/05 09:27:17;;;;;;;4.83;3.10;;;2.40;99.90;;;;;;5056569;28;20481;-61
2024/01/05 09:29:44;;;;;;;4.70;2.67;;;2.40;99.90;;;;;;5070175;28;20793;-64
2024/01/05 09:32:11;;;;;;;3.73;3.10;;;2.50;99.90;;;;;;5060967;28;20451;-65
2024/01/05 09:34:39;;;;;;;5.33;3.33;;;2.50;99.90;;;;;;5060490;28;20527;-64
2024/01/05 09:37:06;;;;;;;3.97;2.83;;;2.50;99.90;;;;;;5056829;28;20803;-64
2024/01/05 09:39:33;;;;;;;6.37;2.80;;;2.50;99.90;;;;;;5056578;28;20977;-65
2024/01/05 09:42:00;;;;;;;4.30;2.50;;;2.50;99.90;;;;;;5056261;28;20468;-65
2024/01/05 09:44:27;;;;;;;4.10;2.70;;;2.50;99.90;;;;;;5057394;28;20957;-64
2024/01/05 09:46:55;;;;;;;3.20;2.90;;;2.50;99.90;;;;;;5080101;28;20439;-63
2024/01/05 09:49:23;;;;;;;6.30;2.47;;;2.60;99.90;;;;;;5080151;28;20413;-65
2024/01/05 09:51:53;;;;;;;3.40;2.97;;;2.60;99.90;;;;;;5080087;28;20413;-64
2024/01/05 09:54:20;;;;;;;3.10;2.57;;;2.60;99.90;;;;;;5079725;28;20471;-64
2024/01/05 09:56:48;;;;;;;5.20;3.77;;;2.60;99.90;;;;;;5079964;28;20440;-64
2024/01/05 09:59:17;;;;;;;4.67;3.23;;;2.60;99.90;;;;;;5079896;28;20409;-63
2024/01/05 10:01:47;;;;;;;3.97;3.53;;;2.60;99.90;;;;;;5079784;28;20431;-63
2024/01/05 10:04:15;;;;;;;4.93;3.27;;;2.70;99.90;;;;;;5079984;28;20402;-63
2024/01/05 10:06:42;;;;;;;5.80;4.00;;;2.70;99.90;;;;;;5079753;28;20433;-58
2024/01/05 10:09:10;;;;;;;5.60;3.40;;;2.60;99.90;;;;;;5079778;28;20421;-63
2024/01/05 10:11:42;;;;;;;5.00;2.63;;;2.70;99.90;;;;;;5078484;28;20428;-64
2024/01/05 10:14:11;;;;;;;5.27;3.63;;;2.60;99.90;;;;;;5077037;28;20483;-65
2024/01/05 10:16:39;;;;;;;9.93;3.73;;;2.60;99.90;;;;;;5076893;28;20444;-66
2024/01/05 10:19:13;;;;;;;9.40;3.23;;;2.60;99.90;;;;;;5076204;28;20473;-64
2024/01/05 10:21:41;;;;;;;2.83;2.57;;;2.60;99.90;;;;;;5076297;28;20459;-63
2024/01/05 10:24:22;;;;;;;3.23;2.90;;;2.70;99.90;;;;;;5076298;28;20426;-64
2024/01/05 10:27:01;;;;;;;3.33;2.80;;;2.70;99.90;;;;;;5076337;28;20410;-63
2024/01/05 10:29:29;;;;;;;5.23;3.20;;;2.70;99.90;;;;;;5075915;28;20480;-63
2024/01/05 10:32:14;;;;;;;4.17;2.97;;;2.70;99.90;;;;;;5075902;28;20454;-65
2024/01/05 10:34:42;;;;;;;5.90;2.97;;;2.70;99.90;;;;;;5076038;28;20499;-63
2024/01/05 10:37:10;;;;;;;5.10;3.67;;;2.70;99.90;;;;;;5075915;28;20471;-66
2024/01/05 10:39:39;;;;;;;6.33;3.13;;;2.70;99.90;;;;;;5076148;28;20436;-63
2024/01/05 10:42:22;;;;;;;3.40;2.40;;;2.70;99.90;;;;;;5075636;28;20528;-63
2024/01/05 10:44:52;;;;;;;4.87;3.30;;;2.60;99.90;;;;;;5075478;28;20434;-63
2024/01/05 10:47:19;;;;;;;4.03;2.77;;;2.60;99.90;;;;;;5076558;28;20459;-65
2024/01/05 10:49:50;;;;;;;3.70;2.67;;;2.60;99.90;;;;;;5076069;28;20470;-66
2024/01/05 10:52:18;;;;;;;5.00;2.80;;;2.50;99.90;;;;;;5076244;28;20592;-63
2024/01/05 10:54:47;;;;;;;6.30;2.97;;;2.50;99.90;;;;;;5076205;28;20487;-62
2024/01/05 10:57:15;;;;;;;7.30;3.90;;;2.50;99.90;;;;;;5076026;28;20441;-63
2024/01/05 10:59:45;;;;;;;5.87;3.50;;;2.50;99.90;;;;;;5075756;28;20558;-64
2024/01/05 11:02:20;;;;;;;5.30;3.30;;;2.50;99.90;;;;;;5055448;28;20555;-64
2024/01/05 11:04:52;;;;;;;5.90;3.03;;;2.50;99.90;;;;;;5054539;28;20858;-64
2024/01/05 11:07:21;;;;;;;6.30;4.13;;;2.50;99.90;;;;;;5054829;28;20431;-65
2024/01/05 11:09:57;;;;;;;4.37;2.77;;;2.50;99.90;;;;;;5063873;28;20455;-60
2024/01/05 11:12:37;;;;;;;3.33;2.70;;;2.50;99.90;;;;;;5078934;28;20405;-62
2024/01/05 11:15:22;;;;;;;4.93;3.13;;;2.60;99.90;;;;;;5078713;28;20479;-63
2024/01/05 11:18:37;;;;;;;8.00;3.10;;;2.60;99.90;;;;;;5078798;28;20457;-59
2024/01/05 11:21:11;;;;;;;2.97;2.67;;;2.70;99.90;;;;;;5036649;28;20446;-64
2024/01/05 11:23:40;;;;;;;2.77;2.30;;;2.70;99.90;;;;;;5078708;28;20410;-63
2024/01/05 11:26:30;;;;;;;3.97;2.33;;;2.70;99.90;;;;;;5081664;28;20467;-61
2024/01/05 11:28:57;;;;;;;2.83;2.50;;;2.70;99.90;;;;;;5081738;28;20448;-59
2024/01/05 11:31:55;;;;;;;3.43;2.43;;;2.60;99.90;;;;;;5080999;28;20438;-64
2024/01/05 11:34:34;;;;;;;4.63;3.17;;;2.60;99.90;;;;;;5061390;28;20962;-65
2024/01/05 11:37:02;;;;;;;5.00;2.70;;;2.60;99.90;;;;;;5059704;28;20430;-65
2024/01/05 11:39:47;;;;;;;8.20;3.70;;;2.60;99.90;;;;;;5058675;28;20951;-66
2024/01/05 11:42:34;;;;;;;2.50;1.90;;;2.60;99.90;;;;;;5058213;28;20529;-66
2024/01/05 11:45:03;;;;;;;3.20;2.60;;;2.60;99.90;;;;;;5058438;28;20462;-64
2024/01/05 11:47:41;;;;;;;3.87;2.60;;;2.60;99.90;;;;;;5058374;28;20472;-66
2024/01/05 11:50:30;;;;;;;3.73;3.30;;;2.60;99.90;;;;;;5067852;28;20463;-63
2024/01/05 11:53:13;;;;;;;5.20;2.63;;;2.60;99.90;;;;;;5078256;28;20472;-65
2024/01/05 11:55:47;;;;;;;4.40;2.90;;;2.70;99.90;;;;;;5078106;28;20464;-65
2024/01/05 11:58:19;;;;;;;3.17;2.60;;;2.70;99.90;;;;;;5078848;28;20435;-64
2024/01/05 12:00:46;;;;;;;4.63;3.30;;;2.70;99.90;;;;;;5078826;28;20412;-64
2024/01/05 12:03:13;;;;;;;6.00;3.40;;;2.60;99.90;;;;;;5079469;28;20433;-64
2024/01/05 12:05:40;;;;;;;6.93;3.77;;;2.70;99.90;;;;;;5079683;28;20462;-62
2024/01/05 12:08:10;;;;;;;5.00;3.13;;;2.60;99.90;;;;;;5079134;28;20861;-63
2024/01/05 12:10:38;;;;;;;5.17;3.50;;;2.70;99.90;;;;;;5079002;28;20563;-64
2024/01/05 12:13:06;;;;;;;11.13;6.13;;;2.70;99.90;;;;;;5078588;28;20463;-64
2024/01/05 12:15:35;;;;;;;10.47;6.07;;;2.60;99.90;;;;;;5078804;28;20546;-65
2024/01/05 12:18:07;;;;;;;7.53;4.40;;;2.70;99.90;;;;;;5078963;28;20504;-63
2024/01/05 12:20:34;;;;;;;8.07;4.77;;;2.70;99.90;;;;;;5079120;28;20494;-65
2024/01/05 12:23:02;;;;;;;3.77;2.90;;;2.70;99.90;;;;;;5079176;28;20438;-65
2024/01/05 12:25:29;;;;;;;4.27;3.60;;;2.70;99.90;;;;;;5078928;28;20471;-61
2024/01/05 12:27:58;;;;;;;4.83;3.00;;;2.70;99.90;;;;;;5078619;28;20431;-64
2024/01/05 12:30:25;;;;;;;4.50;3.37;;;2.70;99.90;;;;;;5078673;28;20444;-63
2024/01/05 12:32:54;;;;;;;3.30;2.83;;;2.70;99.90;;;;;;5077756;28;20474;-62
2024/01/05 12:35:21;;;;;;;4.20;2.80;;;2.60;99.90;;;;;;5078004;28;20515;-65
2024/01/05 12:37:52;;;;;;;4.93;2.80;;;2.60;99.90;;;;;;5077473;28;20836;-66
2024/01/05 12:40:24;;;;;;;6.83;3.23;;;2.70;99.90;;;;;;5077828;28;20504;-65
2024/01/05 12:42:52;;;;;;;4.77;2.93;;;2.70;99.90;;;;;;5077623;28;20462;-64
2024/01/05 12:45:22;;;;;;;5.17;3.80;;;2.70;99.90;;;;;;5070372;28;20474;-65
2024/01/05 12:47:50;;;;;;;6.53;2.87;;;2.80;99.90;;;;;;5077714;28;20418;-64
2024/01/05 12:50:25;;;;;;;11.53;6.33;;;2.80;99.90;;;;;;5081362;28;20475;-62
2024/01/05 12:52:52;;;;;;;6.23;2.90;;;2.80;99.90;;;;;;5074570;28;20462;-64
2024/01/05 12:55:29;;;;;;;3.27;2.60;;;2.80;99.90;;;;;;5073238;28;20491;-65
2024/01/05 12:58:02;;;;;;;5.97;3.70;;;2.70;99.90;;;;;;5071874;28;20447;-65
2024/01/05 13:00:29;;;;;;;3.70;2.33;;;2.80;99.90;;;;;;5075186;28;20419;-63
2024/01/05 13:02:56;;;;;;;12.27;7.17;;;2.70;99.90;;;;;;5078229;28;20455;-64
2024/01/05 13:05:33;;;;;;;5.73;3.23;;;2.70;99.90;;;;;;5078225;28;20447;-65